sensor_id;sensor_type;location;lat;lon;timestamp;P1;durP1;ratioP1;P2;durP2;ratioP2
18364;SDS011;9309;52.126;11.616;2023-07-24T00:01:02;0.85;;;0.85;;
18364;SDS011;9309;52.126;11.616;2023-07-24T00:03:28;1.00;;;1.00;;
18364;SDS011;9309;52.126;11.616;2023-07-24T00:05:58;1.10;;;1.10;;
18364;SDS011;9309;52.126;11.616;2023-07-24T00:08:25;1.07;;;1.07;;
18364;SDS011;9309;52.126;11.616;2023-07-24T00:10:52;0.97;;;0.97;;
18364;SDS011;9309;52.126;11.616;2023-07-24T00:13:19;1.20;;;1.20;;
18364;SDS011;9309;52.126;11.616;2023-07-24T00:15:46;3.03;;;1.10;;
18364;SDS011;9309;52.126;11.616;2023-07-24T00:18:13;0.90;;;0.90;;
18364;SDS011;9309;52.126;11.616;2023-07-24T00:20:39;0.90;;;0.85;;
18364;SDS011;9309;52.126;11.616;2023-07-24T00:23:08;0.77;;;0.77;;
18364;SDS011;9309;52.126;11.616;2023-07-24T00:25:34;0.90;;;0.90;;
18364;SDS011;9309;52.126;11.616;2023-07-24T00:28:01;0.80;;;0.80;;
18364;SDS011;9309;52.126;11.616;2023-07-24T00:30:28;0.98;;;0.98;;
18364;SDS011;9309;52.126;11.616;2023-07-24T00:32:55;1.10;;;1.10;;
18364;SDS011;9309;52.126;11.616;2023-07-24T00:35:22;1.05;;;1.02;;
18364;SDS011;9309;52.126;11.616;2023-07-24T00:37:49;1.08;;;1.08;;
18364;SDS011;9309;52.126;11.616;2023-07-24T00:40:17;0.87;;;0.87;;
18364;SDS011;9309;52.126;11.616;2023-07-24T00:42:46;1.40;;;1.30;;
18364;SDS011;9309;52.126;11.616;2023-07-24T00:45:13;1.20;;;1.20;;
18364;SDS011;9309;52.126;11.616;2023-07-24T00:47:40;1.00;;;1.00;;
18364;SDS011;9309;52.126;11.616;2023-07-24T00:50:07;1.73;;;1.37;;
18364;SDS011;9309;52.126;11.616;2023-07-24T00:52:38;1.30;;;1.30;;
18364;SDS011;9309;52.126;11.616;2023-07-24T00:55:05;3.00;;;1.83;;
18364;SDS011;9309;52.126;11.616;2023-07-24T00:57:34;1.23;;;1.13;;
18364;SDS011;9309;52.126;11.616;2023-07-24T01:00:03;0.80;;;0.80;;
18364;SDS011;9309;52.126;11.616;2023-07-24T01:02:31;1.00;;;1.00;;
18364;SDS011;9309;52.126;11.616;2023-07-24T01:04:58;0.90;;;0.90;;
18364;SDS011;9309;52.126;11.616;2023-07-24T01:07:25;1.00;;;1.00;;
18364;SDS011;9309;52.126;11.616;2023-07-24T01:09:52;1.20;;;1.20;;
18364;SDS011;9309;52.126;11.616;2023-07-24T01:12:22;0.80;;;0.80;;
18364;SDS011;9309;52.126;11.616;2023-07-24T01:15:01;1.30;;;1.30;;
18364;SDS011;9309;52.126;11.616;2023-07-24T01:17:31;1.40;;;1.20;;
18364;SDS011;9309;52.126;11.616;2023-07-24T01:19:59;1.00;;;1.00;;
18364;SDS011;9309;52.126;11.616;2023-07-24T01:22:32;1.23;;;1.13;;
18364;SDS011;9309;52.126;11.616;2023-07-24T01:25:06;1.10;;;1.10;;
18364;SDS011;9309;52.126;11.616;2023-07-24T01:27:43;0.90;;;0.90;;
18364;SDS011;9309;52.126;11.616;2023-07-24T01:30:12;1.20;;;1.20;;
18364;SDS011;9309;52.126;11.616;2023-07-24T01:32:41;1.17;;;1.07;;
18364;SDS011;9309;52.126;11.616;2023-07-24T01:35:07;1.00;;;1.00;;
18364;SDS011;9309;52.126;11.616;2023-07-24T01:37:35;1.10;;;1.10;;
18364;SDS011;9309;52.126;11.616;2023-07-24T01:40:05;1.10;;;1.10;;
18364;SDS011;9309;52.126;11.616;2023-07-24T01:42:34;1.70;;;1.00;;
18364;SDS011;9309;52.126;11.616;2023-07-24T01:45:03;1.10;;;1.10;;
18364;SDS011;9309;52.126;11.616;2023-07-24T01:47:31;1.60;;;0.90;;
18364;SDS011;9309;52.126;11.616;2023-07-24T01:49:58;0.90;;;0.90;;
18364;SDS011;9309;52.126;11.616;2023-07-24T01:52:25;0.83;;;0.83;;
18364;SDS011;9309;52.126;11.616;2023-07-24T01:54:52;0.93;;;0.93;;
18364;SDS011;9309;52.126;11.616;2023-07-24T01:57:19;0.90;;;0.90;;
18364;SDS011;9309;52.126;11.616;2023-07-24T01:59:46;1.10;;;1.10;;
18364;SDS011;9309;52.126;11.616;2023-07-24T02:02:15;1.03;;;1.03;;
18364;SDS011;9309;52.126;11.616;2023-07-24T02:04:42;1.00;;;1.00;;
18364;SDS011;9309;52.126;11.616;2023-07-24T02:07:09;1.00;;;1.00;;
18364;SDS011;9309;52.126;11.616;2023-07-24T02:09:36;1.23;;;0.87;;
18364;SDS011;9309;52.126;11.616;2023-07-24T02:12:03;1.00;;;1.00;;
18364;SDS011;9309;52.126;11.616;2023-07-24T02:14:30;0.90;;;0.90;;
18364;SDS011;9309;52.126;11.616;2023-07-24T02:16:57;1.00;;;1.00;;
18364;SDS011;9309;52.126;11.616;2023-07-24T02:19:25;1.10;;;1.10;;
18364;SDS011;9309;52.126;11.616;2023-07-24T02:21:52;0.90;;;0.90;;
18364;SDS011;9309;52.126;11.616;2023-07-24T02:24:19;1.10;;;1.10;;
18364;SDS011;9309;52.126;11.616;2023-07-24T02:26:46;1.00;;;1.00;;
18364;SDS011;9309;52.126;11.616;2023-07-24T02:29:13;1.17;;;1.17;;
18364;SDS011;9309;52.126;11.616;2023-07-24T02:31:40;1.10;;;1.10;;
18364;SDS011;9309;52.126;11.616;2023-07-24T02:34:06;1.30;;;1.30;;
18364;SDS011;9309;52.126;11.616;2023-07-24T02:36:35;2.33;;;1.13;;
18364;SDS011;9309;52.126;11.616;2023-07-24T02:39:01;1.07;;;1.07;;
18364;SDS011;9309;52.126;11.616;2023-07-24T02:41:28;1.10;;;1.10;;
18364;SDS011;9309;52.126;11.616;2023-07-24T02:43:56;1.20;;;1.20;;
18364;SDS011;9309;52.126;11.616;2023-07-24T02:46:23;0.80;;;0.80;;
18364;SDS011;9309;52.126;11.616;2023-07-24T02:48:50;1.20;;;1.20;;
18364;SDS011;9309;52.126;11.616;2023-07-24T02:51:17;2.20;;;1.40;;
18364;SDS011;9309;52.126;11.616;2023-07-24T02:53:45;1.00;;;1.00;;
18364;SDS011;9309;52.126;11.616;2023-07-24T02:56:12;0.73;;;0.73;;
18364;SDS011;9309;52.126;11.616;2023-07-24T02:58:39;0.90;;;0.90;;
18364;SDS011;9309;52.126;11.616;2023-07-24T03:01:06;0.90;;;0.90;;
18364;SDS011;9309;52.126;11.616;2023-07-24T03:03:33;1.03;;;1.00;;
18364;SDS011;9309;52.126;11.616;2023-07-24T03:06:01;0.90;;;0.90;;
18364;SDS011;9309;52.126;11.616;2023-07-24T03:08:28;1.00;;;1.00;;
18364;SDS011;9309;52.126;11.616;2023-07-24T03:10:56;1.27;;;1.27;;
18364;SDS011;9309;52.126;11.616;2023-07-24T03:13:25;1.00;;;1.00;;
18364;SDS011;9309;52.126;11.616;2023-07-24T03:15:52;1.23;;;1.10;;
18364;SDS011;9309;52.126;11.616;2023-07-24T03:18:20;1.10;;;1.10;;
18364;SDS011;9309;52.126;11.616;2023-07-24T03:20:46;0.90;;;0.90;;
18364;SDS011;9309;52.126;11.616;2023-07-24T03:23:14;0.97;;;0.97;;
18364;SDS011;9309;52.126;11.616;2023-07-24T03:25:41;0.83;;;0.83;;
18364;SDS011;9309;52.126;11.616;2023-07-24T03:28:12;1.10;;;1.10;;
18364;SDS011;9309;52.126;11.616;2023-07-24T03:30:39;1.00;;;1.00;;
18364;SDS011;9309;52.126;11.616;2023-07-24T03:33:06;1.03;;;1.03;;
18364;SDS011;9309;52.126;11.616;2023-07-24T03:35:33;1.10;;;1.10;;
18364;SDS011;9309;52.126;11.616;2023-07-24T03:38:00;0.93;;;0.93;;
18364;SDS011;9309;52.126;11.616;2023-07-24T03:40:27;1.13;;;1.13;;
18364;SDS011;9309;52.126;11.616;2023-07-24T03:42:54;0.90;;;0.90;;
18364;SDS011;9309;52.126;11.616;2023-07-24T03:45:22;1.07;;;1.07;;
18364;SDS011;9309;52.126;11.616;2023-07-24T03:47:49;1.00;;;1.00;;
18364;SDS011;9309;52.126;11.616;2023-07-24T03:50:16;1.10;;;1.10;;
18364;SDS011;9309;52.126;11.616;2023-07-24T03:52:43;0.90;;;0.90;;
18364;SDS011;9309;52.126;11.616;2023-07-24T03:55:09;1.10;;;1.10;;
18364;SDS011;9309;52.126;11.616;2023-07-24T03:57:36;1.10;;;1.10;;
18364;SDS011;9309;52.126;11.616;2023-07-24T04:00:03;0.93;;;0.93;;
18364;SDS011;9309;52.126;11.616;2023-07-24T04:02:38;2.73;;;1.13;;
18364;SDS011;9309;52.126;11.616;2023-07-24T04:05:05;1.00;;;1.00;;
18364;SDS011;9309;52.126;11.616;2023-07-24T04:07:32;1.50;;;1.03;;
18364;SDS011;9309;52.126;11.616;2023-07-24T04:10:00;1.00;;;1.00;;
18364;SDS011;9309;52.126;11.616;2023-07-24T04:12:28;1.00;;;1.00;;
18364;SDS011;9309;52.126;11.616;2023-07-24T04:14:55;0.90;;;0.90;;
18364;SDS011;9309;52.126;11.616;2023-07-24T04:17:22;1.37;;;1.17;;
18364;SDS011;9309;52.126;11.616;2023-07-24T04:19:50;0.90;;;0.90;;
18364;SDS011;9309;52.126;11.616;2023-07-24T04:22:17;1.27;;;1.27;;
18364;SDS011;9309;52.126;11.616;2023-07-24T04:24:44;2.07;;;1.10;;
18364;SDS011;9309;52.126;11.616;2023-07-24T04:27:10;1.30;;;1.30;;
18364;SDS011;9309;52.126;11.616;2023-07-24T04:29:37;1.20;;;1.10;;
18364;SDS011;9309;52.126;11.616;2023-07-24T04:32:04;1.10;;;1.10;;
18364;SDS011;9309;52.126;11.616;2023-07-24T04:34:31;1.30;;;1.00;;
18364;SDS011;9309;52.126;11.616;2023-07-24T04:36:59;1.00;;;1.00;;
18364;SDS011;9309;52.126;11.616;2023-07-24T04:39:26;1.17;;;1.13;;
18364;SDS011;9309;52.126;11.616;2023-07-24T04:41:53;1.37;;;1.20;;
18364;SDS011;9309;52.126;11.616;2023-07-24T04:44:20;0.90;;;0.90;;
18364;SDS011;9309;52.126;11.616;2023-07-24T04:46:47;2.63;;;1.37;;
18364;SDS011;9309;52.126;11.616;2023-07-24T04:49:13;1.83;;;1.73;;
18364;SDS011;9309;52.126;11.616;2023-07-24T04:51:40;1.17;;;1.10;;
18364;SDS011;9309;52.126;11.616;2023-07-24T04:54:08;1.30;;;1.30;;
18364;SDS011;9309;52.126;11.616;2023-07-24T04:56:35;1.27;;;1.27;;
18364;SDS011;9309;52.126;11.616;2023-07-24T04:59:02;1.00;;;1.00;;
18364;SDS011;9309;52.126;11.616;2023-07-24T05:01:28;1.20;;;1.20;;
18364;SDS011;9309;52.126;11.616;2023-07-24T05:03:55;1.10;;;1.00;;
18364;SDS011;9309;52.126;11.616;2023-07-24T05:06:22;2.17;;;1.02;;
18364;SDS011;9309;52.126;11.616;2023-07-24T05:08:49;1.30;;;1.30;;
18364;SDS011;9309;52.126;11.616;2023-07-24T05:11:17;1.00;;;1.00;;
18364;SDS011;9309;52.126;11.616;2023-07-24T05:13:43;1.20;;;1.20;;
18364;SDS011;9309;52.126;11.616;2023-07-24T05:16:10;1.20;;;1.20;;
18364;SDS011;9309;52.126;11.616;2023-07-24T05:18:37;1.07;;;1.00;;
18364;SDS011;9309;52.126;11.616;2023-07-24T05:21:04;1.23;;;1.17;;
18364;SDS011;9309;52.126;11.616;2023-07-24T05:23:30;1.20;;;1.20;;
18364;SDS011;9309;52.126;11.616;2023-07-24T05:25:57;1.13;;;1.13;;
18364;SDS011;9309;52.126;11.616;2023-07-24T05:28:26;1.60;;;1.57;;
18364;SDS011;9309;52.126;11.616;2023-07-24T05:30:53;1.20;;;1.20;;
18364;SDS011;9309;52.126;11.616;2023-07-24T05:33:20;1.20;;;1.20;;
18364;SDS011;9309;52.126;11.616;2023-07-24T05:35:48;1.27;;;1.27;;
18364;SDS011;9309;52.126;11.616;2023-07-24T05:38:14;1.37;;;1.17;;
18364;SDS011;9309;52.126;11.616;2023-07-24T05:40:41;1.43;;;1.37;;
18364;SDS011;9309;52.126;11.616;2023-07-24T05:43:08;1.20;;;1.20;;
18364;SDS011;9309;52.126;11.616;2023-07-24T05:45:36;1.10;;;1.10;;
18364;SDS011;9309;52.126;11.616;2023-07-24T05:48:03;1.50;;;1.23;;
18364;SDS011;9309;52.126;11.616;2023-07-24T05:50:30;1.37;;;1.37;;
18364;SDS011;9309;52.126;11.616;2023-07-24T05:52:57;1.30;;;1.30;;
18364;SDS011;9309;52.126;11.616;2023-07-24T05:55:24;1.53;;;0.90;;
18364;SDS011;9309;52.126;11.616;2023-07-24T05:57:51;1.53;;;1.37;;
18364;SDS011;9309;52.126;11.616;2023-07-24T06:00:18;1.50;;;1.40;;
18364;SDS011;9309;52.126;11.616;2023-07-24T06:02:46;1.27;;;1.25;;
18364;SDS011;9309;52.126;11.616;2023-07-24T06:05:13;1.33;;;1.33;;
18364;SDS011;9309;52.126;11.616;2023-07-24T06:07:39;0.98;;;0.98;;
18364;SDS011;9309;52.126;11.616;2023-07-24T06:10:07;0.85;;;0.85;;
18364;SDS011;9309;52.126;11.616;2023-07-24T06:12:34;1.30;;;1.30;;
18364;SDS011;9309;52.126;11.616;2023-07-24T06:15:00;1.73;;;1.20;;
18364;SDS011;9309;52.126;11.616;2023-07-24T06:17:28;1.20;;;1.20;;
18364;SDS011;9309;52.126;11.616;2023-07-24T06:19:56;0.95;;;0.95;;
18364;SDS011;9309;52.126;11.616;2023-07-24T06:22:23;1.13;;;1.13;;
18364;SDS011;9309;52.126;11.616;2023-07-24T06:24:50;4.60;;;1.27;;
18364;SDS011;9309;52.126;11.616;2023-07-24T06:27:17;1.30;;;1.30;;
18364;SDS011;9309;52.126;11.616;2023-07-24T06:29:43;1.25;;;1.20;;
18364;SDS011;9309;52.126;11.616;2023-07-24T06:32:10;1.95;;;1.42;;
18364;SDS011;9309;52.126;11.616;2023-07-24T06:34:37;1.27;;;1.20;;
18364;SDS011;9309;52.126;11.616;2023-07-24T06:37:05;1.08;;;1.08;;
18364;SDS011;9309;52.126;11.616;2023-07-24T06:39:32;0.98;;;0.98;;
18364;SDS011;9309;52.126;11.616;2023-07-24T06:41:59;2.03;;;1.40;;
18364;SDS011;9309;52.126;11.616;2023-07-24T06:44:26;1.00;;;1.00;;
18364;SDS011;9309;52.126;11.616;2023-07-24T06:46:52;1.15;;;0.90;;
18364;SDS011;9309;52.126;11.616;2023-07-24T06:49:19;1.15;;;1.13;;
18364;SDS011;9309;52.126;11.616;2023-07-24T06:51:46;1.13;;;1.10;;
18364;SDS011;9309;52.126;11.616;2023-07-24T06:54:14;1.77;;;1.20;;
18364;SDS011;9309;52.126;11.616;2023-07-24T06:56:41;1.65;;;1.17;;
18364;SDS011;9309;52.126;11.616;2023-07-24T06:59:07;1.25;;;1.20;;
18364;SDS011;9309;52.126;11.616;2023-07-24T07:01:34;1.27;;;1.00;;
18364;SDS011;9309;52.126;11.616;2023-07-24T07:04:01;1.33;;;1.08;;
18364;SDS011;9309;52.126;11.616;2023-07-24T07:06:28;1.38;;;1.27;;
18364;SDS011;9309;52.126;11.616;2023-07-24T07:08:54;1.33;;;1.33;;
18364;SDS011;9309;52.126;11.616;2023-07-24T07:11:22;1.20;;;1.20;;
18364;SDS011;9309;52.126;11.616;2023-07-24T07:13:49;1.80;;;1.40;;
18364;SDS011;9309;52.126;11.616;2023-07-24T07:16:16;1.10;;;1.10;;
18364;SDS011;9309;52.126;11.616;2023-07-24T07:18:44;1.33;;;1.23;;
18364;SDS011;9309;52.126;11.616;2023-07-24T07:21:10;1.63;;;1.50;;
18364;SDS011;9309;52.126;11.616;2023-07-24T07:23:37;1.27;;;1.23;;
18364;SDS011;9309;52.126;11.616;2023-07-24T07:26:04;1.55;;;1.45;;
18364;SDS011;9309;52.126;11.616;2023-07-24T07:28:32;1.52;;;1.38;;
18364;SDS011;9309;52.126;11.616;2023-07-24T07:30:59;1.33;;;1.30;;
18364;SDS011;9309;52.126;11.616;2023-07-24T07:33:25;1.23;;;1.13;;
18364;SDS011;9309;52.126;11.616;2023-07-24T07:35:53;1.25;;;1.17;;
18364;SDS011;9309;52.126;11.616;2023-07-24T07:38:19;1.10;;;1.10;;
18364;SDS011;9309;52.126;11.616;2023-07-24T07:40:47;1.70;;;1.63;;
18364;SDS011;9309;52.126;11.616;2023-07-24T07:43:14;1.10;;;1.10;;
18364;SDS011;9309;52.126;11.616;2023-07-24T07:45:42;1.75;;;1.10;;
18364;SDS011;9309;52.126;11.616;2023-07-24T07:48:09;1.38;;;1.25;;
18364;SDS011;9309;52.126;11.616;2023-07-24T07:50:36;1.50;;;1.40;;
18364;SDS011;9309;52.126;11.616;2023-07-24T07:53:02;1.40;;;1.30;;
18364;SDS011;9309;52.126;11.616;2023-07-24T07:55:29;1.42;;;1.33;;
18364;SDS011;9309;52.126;11.616;2023-07-24T07:57:56;1.65;;;1.55;;
18364;SDS011;9309;52.126;11.616;2023-07-24T08:00:23;1.23;;;1.23;;
18364;SDS011;9309;52.126;11.616;2023-07-24T08:02:51;2.63;;;1.52;;
18364;SDS011;9309;52.126;11.616;2023-07-24T08:05:18;1.10;;;1.10;;
18364;SDS011;9309;52.126;11.616;2023-07-24T08:07:45;1.20;;;1.20;;
18364;SDS011;9309;52.126;11.616;2023-07-24T08:10:12;2.08;;;1.67;;
18364;SDS011;9309;52.126;11.616;2023-07-24T08:12:40;0.95;;;0.95;;
18364;SDS011;9309;52.126;11.616;2023-07-24T08:15:07;1.52;;;1.45;;
18364;SDS011;9309;52.126;11.616;2023-07-24T08:17:35;1.08;;;1.08;;
18364;SDS011;9309;52.126;11.616;2023-07-24T08:20:03;1.50;;;1.50;;
18364;SDS011;9309;52.126;11.616;2023-07-24T08:22:31;1.20;;;1.20;;
18364;SDS011;9309;52.126;11.616;2023-07-24T08:24:57;3.13;;;1.60;;
18364;SDS011;9309;52.126;11.616;2023-07-24T08:27:24;1.98;;;1.73;;
18364;SDS011;9309;52.126;11.616;2023-07-24T08:29:51;1.60;;;1.50;;
18364;SDS011;9309;52.126;11.616;2023-07-24T08:32:18;5.40;;;1.52;;
18364;SDS011;9309;52.126;11.616;2023-07-24T08:34:45;1.80;;;1.23;;
18364;SDS011;9309;52.126;11.616;2023-07-24T08:37:13;1.50;;;1.40;;
18364;SDS011;9309;52.126;11.616;2023-07-24T08:39:40;1.23;;;1.13;;
18364;SDS011;9309;52.126;11.616;2023-07-24T08:42:07;1.35;;;1.30;;
18364;SDS011;9309;52.126;11.616;2023-07-24T08:44:35;1.05;;;1.05;;
18364;SDS011;9309;52.126;11.616;2023-07-24T08:47:03;1.17;;;1.17;;
18364;SDS011;9309;52.126;11.616;2023-07-24T08:49:32;1.42;;;1.38;;
18364;SDS011;9309;52.126;11.616;2023-07-24T08:52:00;1.17;;;1.17;;
18364;SDS011;9309;52.126;11.616;2023-07-24T08:54:28;1.00;;;0.90;;
18364;SDS011;9309;52.126;11.616;2023-07-24T08:56:56;1.48;;;1.20;;
18364;SDS011;9309;52.126;11.616;2023-07-24T08:59:23;1.10;;;1.10;;
18364;SDS011;9309;52.126;11.616;2023-07-24T09:01:50;1.45;;;1.25;;
18364;SDS011;9309;52.126;11.616;2023-07-24T09:04:17;1.38;;;1.10;;
18364;SDS011;9309;52.126;11.616;2023-07-24T09:06:44;1.25;;;1.25;;
18364;SDS011;9309;52.126;11.616;2023-07-24T09:09:12;2.65;;;1.50;;
18364;SDS011;9309;52.126;11.616;2023-07-24T09:11:46;1.65;;;1.40;;
18364;SDS011;9309;52.126;11.616;2023-07-24T09:14:20;1.45;;;1.35;;
18364;SDS011;9309;52.126;11.616;2023-07-24T09:16:47;4.32;;;1.33;;
18364;SDS011;9309;52.126;11.616;2023-07-24T09:19:18;1.35;;;1.33;;
18364;SDS011;9309;52.126;11.616;2023-07-24T09:21:45;1.50;;;1.40;;
18364;SDS011;9309;52.126;11.616;2023-07-24T09:24:12;1.10;;;1.10;;
18364;SDS011;9309;52.126;11.616;2023-07-24T09:26:48;1.58;;;1.48;;
18364;SDS011;9309;52.126;11.616;2023-07-24T09:29:16;1.50;;;1.40;;
18364;SDS011;9309;52.126;11.616;2023-07-24T09:31:43;1.85;;;1.73;;
18364;SDS011;9309;52.126;11.616;2023-07-24T09:34:14;1.70;;;1.60;;
18364;SDS011;9309;52.126;11.616;2023-07-24T09:36:41;2.35;;;1.50;;
18364;SDS011;9309;52.126;11.616;2023-07-24T09:39:08;5.03;;;1.85;;
18364;SDS011;9309;52.126;11.616;2023-07-24T09:41:36;1.85;;;1.75;;
18364;SDS011;9309;52.126;11.616;2023-07-24T09:44:05;1.38;;;1.27;;
18364;SDS011;9309;52.126;11.616;2023-07-24T09:46:32;4.85;;;2.08;;
18364;SDS011;9309;52.126;11.616;2023-07-24T09:48:59;1.50;;;1.40;;
18364;SDS011;9309;52.126;11.616;2023-07-24T09:51:34;1.67;;;1.58;;
18364;SDS011;9309;52.126;11.616;2023-07-24T09:54:04;1.90;;;1.70;;
18364;SDS011;9309;52.126;11.616;2023-07-24T09:56:35;2.00;;;1.90;;
18364;SDS011;9309;52.126;11.616;2023-07-24T09:59:03;2.40;;;1.65;;
18364;SDS011;9309;52.126;11.616;2023-07-24T10:01:31;1.40;;;1.25;;
18364;SDS011;9309;52.126;11.616;2023-07-24T10:03:59;1.65;;;1.60;;
18364;SDS011;9309;52.126;11.616;2023-07-24T10:06:27;1.65;;;1.55;;
18364;SDS011;9309;52.126;11.616;2023-07-24T10:08:56;1.88;;;1.77;;
18364;SDS011;9309;52.126;11.616;2023-07-24T10:11:24;1.67;;;1.58;;
18364;SDS011;9309;52.126;11.616;2023-07-24T10:13:52;2.05;;;1.85;;
18364;SDS011;9309;52.126;11.616;2023-07-24T10:16:19;2.13;;;1.95;;
18364;SDS011;9309;52.126;11.616;2023-07-24T10:18:46;2.58;;;1.75;;
18364;SDS011;9309;52.126;11.616;2023-07-24T10:21:14;3.15;;;1.83;;
18364;SDS011;9309;52.126;11.616;2023-07-24T10:23:41;1.98;;;1.88;;
18364;SDS011;9309;52.126;11.616;2023-07-24T10:26:10;2.05;;;1.52;;
18364;SDS011;9309;52.126;11.616;2023-07-24T10:28:38;1.95;;;1.77;;
18364;SDS011;9309;52.126;11.616;2023-07-24T10:31:06;2.35;;;2.15;;
18364;SDS011;9309;52.126;11.616;2023-07-24T10:33:35;1.17;;;1.15;;
18364;SDS011;9309;52.126;11.616;2023-07-24T10:36:10;1.83;;;1.20;;
18364;SDS011;9309;52.126;11.616;2023-07-24T10:38:39;1.33;;;1.23;;
18364;SDS011;9309;52.126;11.616;2023-07-24T10:41:07;1.88;;;1.23;;
18364;SDS011;9309;52.126;11.616;2023-07-24T10:43:46;1.13;;;1.13;;
18364;SDS011;9309;52.126;11.616;2023-07-24T10:46:16;1.23;;;1.17;;
18364;SDS011;9309;52.126;11.616;2023-07-24T10:48:45;1.08;;;1.00;;
18364;SDS011;9309;52.126;11.616;2023-07-24T10:51:12;0.90;;;0.90;;
18364;SDS011;9309;52.126;11.616;2023-07-24T10:53:41;1.70;;;1.08;;
18364;SDS011;9309;52.126;11.616;2023-07-24T10:56:10;1.17;;;1.00;;
18364;SDS011;9309;52.126;11.616;2023-07-24T10:58:37;1.33;;;1.23;;
18364;SDS011;9309;52.126;11.616;2023-07-24T11:01:05;1.08;;;1.08;;
18364;SDS011;9309;52.126;11.616;2023-07-24T11:03:35;0.85;;;0.85;;
18364;SDS011;9309;52.126;11.616;2023-07-24T11:06:03;1.42;;;1.13;;
18364;SDS011;9309;52.126;11.616;2023-07-24T11:08:30;1.20;;;1.20;;
18364;SDS011;9309;52.126;11.616;2023-07-24T11:10:59;1.58;;;1.13;;
18364;SDS011;9309;52.126;11.616;2023-07-24T11:13:28;1.33;;;1.33;;
18364;SDS011;9309;52.126;11.616;2023-07-24T11:15:55;1.25;;;1.10;;
18364;SDS011;9309;52.126;11.616;2023-07-24T11:18:23;1.17;;;1.05;;
18364;SDS011;9309;52.126;11.616;2023-07-24T11:20:52;1.40;;;1.30;;
18364;SDS011;9309;52.126;11.616;2023-07-24T11:23:20;1.20;;;1.20;;
18364;SDS011;9309;52.126;11.616;2023-07-24T11:25:49;1.27;;;1.23;;
18364;SDS011;9309;52.126;11.616;2023-07-24T11:28:17;1.60;;;1.23;;
18364;SDS011;9309;52.126;11.616;2023-07-24T11:30:44;5.65;;;1.20;;
18364;SDS011;9309;52.126;11.616;2023-07-24T11:33:11;1.20;;;1.20;;
18364;SDS011;9309;52.126;11.616;2023-07-24T11:35:42;1.02;;;1.02;;
18364;SDS011;9309;52.126;11.616;2023-07-24T11:38:09;1.67;;;0.90;;
18364;SDS011;9309;52.126;11.616;2023-07-24T11:40:37;1.65;;;0.95;;
18364;SDS011;9309;52.126;11.616;2023-07-24T11:43:14;1.05;;;1.02;;
18364;SDS011;9309;52.126;11.616;2023-07-24T11:45:42;1.88;;;1.73;;
18364;SDS011;9309;52.126;11.616;2023-07-24T11:48:10;1.40;;;1.40;;
18364;SDS011;9309;52.126;11.616;2023-07-24T11:50:43;1.38;;;1.27;;
18364;SDS011;9309;52.126;11.616;2023-07-24T11:53:18;2.75;;;1.77;;
18364;SDS011;9309;52.126;11.616;2023-07-24T11:55:47;1.08;;;1.08;;
18364;SDS011;9309;52.126;11.616;2023-07-24T11:58:14;1.08;;;1.08;;
18364;SDS011;9309;52.126;11.616;2023-07-24T12:00:42;1.40;;;1.17;;
18364;SDS011;9309;52.126;11.616;2023-07-24T12:03:09;1.23;;;1.23;;
18364;SDS011;9309;52.126;11.616;2023-07-24T12:05:39;1.20;;;1.20;;
18364;SDS011;9309;52.126;11.616;2023-07-24T12:08:08;1.92;;;1.38;;
18364;SDS011;9309;52.126;11.616;2023-07-24T12:10:36;1.35;;;1.35;;
18364;SDS011;9309;52.126;11.616;2023-07-24T12:47:23;1.75;;;1.58;;
18364;SDS011;9309;52.126;11.616;2023-07-24T12:52:17;1.40;;;1.23;;
18364;SDS011;9309;52.126;11.616;2023-07-24T12:55:08;1.50;;;1.40;;
18364;SDS011;9309;52.126;11.616;2023-07-24T12:57:37;1.67;;;1.60;;
18364;SDS011;9309;52.126;11.616;2023-07-24T13:00:04;1.02;;;1.00;;
18364;SDS011;9309;52.126;11.616;2023-07-24T13:02:32;1.30;;;1.20;;
18364;SDS011;9309;52.126;11.616;2023-07-24T13:04:59;1.30;;;1.20;;
18364;SDS011;9309;52.126;11.616;2023-07-24T13:07:25;1.30;;;1.30;;
18364;SDS011;9309;52.126;11.616;2023-07-24T13:09:54;1.98;;;1.65;;
18364;SDS011;9309;52.126;11.616;2023-07-24T13:12:20;1.73;;;1.58;;
18364;SDS011;9309;52.126;11.616;2023-07-24T13:14:49;2.08;;;1.40;;
18364;SDS011;9309;52.126;11.616;2023-07-24T13:17:15;1.45;;;1.33;;
18364;SDS011;9309;52.126;11.616;2023-07-24T13:19:42;1.40;;;1.30;;
18364;SDS011;9309;52.126;11.616;2023-07-24T13:22:09;1.30;;;1.20;;
18364;SDS011;9309;52.126;11.616;2023-07-24T13:24:36;1.42;;;1.35;;
18364;SDS011;9309;52.126;11.616;2023-07-24T13:27:03;1.02;;;1.02;;
18364;SDS011;9309;52.126;11.616;2023-07-24T13:29:30;1.50;;;1.40;;
18364;SDS011;9309;52.126;11.616;2023-07-24T13:31:58;1.25;;;1.20;;
18364;SDS011;9309;52.126;11.616;2023-07-24T13:34:25;1.48;;;1.38;;
18364;SDS011;9309;52.126;11.616;2023-07-24T13:36:52;1.67;;;1.48;;
18364;SDS011;9309;52.126;11.616;2023-07-24T13:39:18;1.75;;;1.52;;
18364;SDS011;9309;52.126;11.616;2023-07-24T13:41:45;1.52;;;1.45;;
18364;SDS011;9309;52.126;11.616;2023-07-24T13:44:12;1.58;;;1.38;;
18364;SDS011;9309;52.126;11.616;2023-07-24T13:46:38;2.00;;;1.35;;
18364;SDS011;9309;52.126;11.616;2023-07-24T13:49:07;2.25;;;1.75;;
18364;SDS011;9309;52.126;11.616;2023-07-24T13:51:33;1.38;;;1.27;;
18364;SDS011;9309;52.126;11.616;2023-07-24T13:54:00;1.20;;;1.10;;
18364;SDS011;9309;52.126;11.616;2023-07-24T13:56:27;1.30;;;1.05;;
18364;SDS011;9309;52.126;11.616;2023-07-24T13:58:54;1.58;;;1.48;;
18364;SDS011;9309;52.126;11.616;2023-07-24T14:01:21;1.17;;;1.15;;
18364;SDS011;9309;52.126;11.616;2023-07-24T14:03:48;1.60;;;1.48;;
18364;SDS011;9309;52.126;11.616;2023-07-24T14:06:16;1.60;;;1.50;;
18364;SDS011;9309;52.126;11.616;2023-07-24T14:08:43;1.92;;;1.83;;
18364;SDS011;9309;52.126;11.616;2023-07-24T14:11:10;1.73;;;1.60;;
18364;SDS011;9309;52.126;11.616;2023-07-24T14:13:37;1.83;;;1.55;;
18364;SDS011;9309;52.126;11.616;2023-07-24T14:16:03;1.52;;;1.52;;
18364;SDS011;9309;52.126;11.616;2023-07-24T14:18:30;1.60;;;1.50;;
18364;SDS011;9309;52.126;11.616;2023-07-24T14:20:57;1.50;;;1.40;;
18364;SDS011;9309;52.126;11.616;2023-07-24T14:23:25;3.15;;;1.58;;
18364;SDS011;9309;52.126;11.616;2023-07-24T14:25:52;1.88;;;1.73;;
18364;SDS011;9309;52.126;11.616;2023-07-24T14:28:19;1.70;;;1.65;;
18364;SDS011;9309;52.126;11.616;2023-07-24T14:30:46;1.85;;;1.70;;
18364;SDS011;9309;52.126;11.616;2023-07-24T14:33:13;2.40;;;2.20;;
18364;SDS011;9309;52.126;11.616;2023-07-24T14:35:40;3.97;;;2.15;;
18364;SDS011;9309;52.126;11.616;2023-07-24T14:38:07;2.75;;;1.77;;
18364;SDS011;9309;52.126;11.616;2023-07-24T14:40:35;2.25;;;1.73;;
18364;SDS011;9309;52.126;11.616;2023-07-24T14:43:02;2.88;;;1.75;;
18364;SDS011;9309;52.126;11.616;2023-07-24T14:45:28;1.52;;;1.38;;
18364;SDS011;9309;52.126;11.616;2023-07-24T14:47:55;2.40;;;2.13;;
18364;SDS011;9309;52.126;11.616;2023-07-24T14:50:22;4.32;;;1.75;;
18364;SDS011;9309;52.126;11.616;2023-07-24T14:52:49;1.98;;;1.88;;
18364;SDS011;9309;52.126;11.616;2023-07-24T14:55:15;1.60;;;1.48;;
18364;SDS011;9309;52.126;11.616;2023-07-24T14:57:43;1.85;;;1.73;;
18364;SDS011;9309;52.126;11.616;2023-07-24T15:00:11;1.90;;;1.80;;
18364;SDS011;9309;52.126;11.616;2023-07-24T15:02:39;6.93;;;2.08;;
18364;SDS011;9309;52.126;11.616;2023-07-24T15:05:05;1.80;;;1.70;;
18364;SDS011;9309;52.126;11.616;2023-07-24T15:07:32;2.92;;;1.80;;
18364;SDS011;9309;52.126;11.616;2023-07-24T15:09:59;2.97;;;2.30;;
18364;SDS011;9309;52.126;11.616;2023-07-24T15:12:26;3.03;;;1.83;;
18364;SDS011;9309;52.126;11.616;2023-07-24T15:14:54;2.85;;;2.03;;
18364;SDS011;9309;52.126;11.616;2023-07-24T15:17:21;2.28;;;1.85;;
18364;SDS011;9309;52.126;11.616;2023-07-24T15:19:48;2.72;;;1.95;;
18364;SDS011;9309;52.126;11.616;2023-07-24T15:22:14;4.40;;;2.25;;
18364;SDS011;9309;52.126;11.616;2023-07-24T15:24:41;1.70;;;1.60;;
18364;SDS011;9309;52.126;11.616;2023-07-24T15:27:08;4.00;;;1.70;;